Time;durP1;ratioP1;P1;durP2;ratioP2;P2;SDS_P1;SDS_P2;PMS_P1;PMS_P2;Temp;Humidity;BMP_temperature;BMP_pressure;BME280_temperature;BME280_humidity;BME280_pressure;Samples;Min_cycle;Max_cycle;Signal;HPM_P1;HPM_P2
2023/09/16 00:01:08;;;;;;;;;;;12.10;99.90;;;;;;4989581;28;19983;-82
2023/09/16 00:03:35;;;;;;;;;;;12.20;99.90;;;;;;4945525;28;19993;-83
2023/09/16 00:06:01;;;;;;;;;;;12.20;99.90;;;;;;4932658;28;20029;-84
2023/09/16 00:08:26;;;;;;;;;;;12.20;99.90;;;;;;4940867;28;20332;-82
2023/09/16 00:10:52;;;;;;;;;;;12.20;99.90;;;;;;4918041;29;19930;-83
2023/09/16 00:13:18;;;;;;;;;;;12.20;99.90;;;;;;4933530;29;19931;-82
2023/09/16 00:15:45;;;;;;;;;;;12.20;99.90;;;;;;4934582;29;19973;-84
2023/09/16 00:18:11;;;;;;;;;;;12.20;99.90;;;;;;4935114;29;19931;-83
2023/09/16 00:20:36;;;;;;;;;;;12.20;99.90;;;;;;4937564;28;20025;-83
2023/09/16 00:23:04;;;;;;;;;;;12.20;99.90;;;;;;4933610;29;20358;-84
2023/09/16 00:25:30;;;;;;;;;;;12.20;99.90;;;;;;4935056;29;19934;-84
2023/09/16 00:27:55;;;;;;;;;;;12.20;99.90;;;;;;4931162;28;19927;-82
2023/09/16 00:30:21;;;;;;;;;;;12.20;99.90;;;;;;4933512;29;19985;-83
2023/09/16 00:32:47;;;;;;;;;;;12.20;99.90;;;;;;4933376;29;19927;-82
2023/09/16 00:35:13;;;;;;;;;;;12.20;99.90;;;;;;4934678;29;20285;-83
2023/09/16 00:37:38;;;;;;;;;;;12.20;99.90;;;;;;4935056;29;19927;-82
2023/09/16 00:40:06;;;;;;;;;;;12.10;99.90;;;;;;4933804;28;19931;-82
2023/09/16 00:42:32;;;;;;;;;;;12.10;99.90;;;;;;4934405;29;19949;-84
2023/09/16 00:44:58;;;;;;;;;;;12.10;99.90;;;;;;4939611;28;20057;-83
2023/09/16 00:47:23;;;;;;;;;;;12.10;99.90;;;;;;4933441;29;19931;-82
2023/09/16 00:49:49;;;;;;;;;;;12.10;99.90;;;;;;4934337;29;20031;-83
2023/09/16 00:52:15;;;;;;;;;;;12.10;99.90;;;;;;4947576;28;19926;-82
2023/09/16 00:54:41;;;;;;;;;;;12.10;99.90;;;;;;4942670;28;19931;-83
2023/09/16 00:57:09;;;;;;;;;;;12.10;99.90;;;;;;4935303;29;19931;-82
2023/09/16 00:59:35;;;;;;;;;;;12.10;99.90;;;;;;4933920;29;20436;-83
2023/09/16 01:02:00;;;;;;;;;;;12.10;99.90;;;;;;4933444;29;20026;-82
2023/09/16 01:04:26;;;;;;;;;;;12.10;99.90;;;;;;4932907;29;19933;-82
2023/09/16 01:06:52;;;;;;;;;;;12.10;99.90;;;;;;4933065;29;19977;-82
2023/09/16 01:09:20;;;;;;;;;;;12.10;99.90;;;;;;4934504;28;19927;-83
2023/09/16 01:11:46;;;;;;;;;;;12.10;99.90;;;;;;4934032;28;19966;-83
2023/09/16 01:14:12;;;;;;;;;;;12.10;99.90;;;;;;4931988;28;20181;-84
2023/09/16 01:16:52;;;;;;;;;;;12.20;99.90;;;;;;4932397;28;20005;-83
2023/09/16 01:19:30;;;;;;;;;;;12.10;99.90;;;;;;4916550;29;20405;-86
2023/09/16 01:21:55;;;;;;;;;;;12.10;99.90;;;;;;4933878;29;19931;-83
2023/09/16 01:24:24;;;;;;;;;;;12.00;99.90;;;;;;4937723;28;19927;-82
2023/09/16 01:26:50;;;;;;;;;;;11.90;99.90;;;;;;4933641;29;19933;-83
2023/09/16 01:29:16;;;;;;;;;;;12.00;99.90;;;;;;4933710;29;19931;-85
2023/09/16 01:31:42;;;;;;;;;;;11.90;99.90;;;;;;4931944;29;19935;-84
2023/09/16 01:34:10;;;;;;;;;;;11.90;99.90;;;;;;4933899;29;20007;-82
2023/09/16 01:36:37;;;;;;;;;;;11.90;99.90;;;;;;4933622;29;20081;-83
2023/09/16 01:39:03;;;;;;;;;;;11.90;99.90;;;;;;4920379;29;19976;-84
2023/09/16 01:41:30;;;;;;;;;;;11.90;99.90;;;;;;4933405;29;19931;-83
2023/09/16 01:43:56;;;;;;;;;;;11.90;99.90;;;;;;4932918;28;19931;-84
2023/09/16 01:46:21;;;;;;;;;;;11.90;99.90;;;;;;4933627;29;20002;-85
2023/09/16 01:48:47;;;;;;;;;;;11.90;99.90;;;;;;4933569;28;20274;-83
2023/09/16 01:51:13;;;;;;;;;;;11.90;99.90;;;;;;4945961;28;19966;-83
2023/09/16 01:53:39;;;;;;;;;;;11.90;99.90;;;;;;4933456;29;19927;-83
2023/09/16 01:56:04;;;;;;;;;;;11.90;99.90;;;;;;4934389;29;19933;-82
2023/09/16 01:58:31;;;;;;;;;;;11.90;99.90;;;;;;4918755;28;19938;-84
2023/09/16 02:00:56;;;;;;;;;;;11.90;99.90;;;;;;4932783;29;19926;-84
2023/09/16 02:03:22;;;;;;;;;;;11.90;99.90;;;;;;4933181;29;20289;-83
2023/09/16 02:05:47;;;;;;;;;;;11.90;99.90;;;;;;4932780;28;20041;-83
2023/09/16 02:08:13;;;;;;;;;;;11.90;99.90;;;;;;4961689;28;19930;-82
2023/09/16 02:10:38;;;;;;;;;;;11.80;99.90;;;;;;4933314;29;19934;-83
2023/09/16 02:13:04;;;;;;;;;;;11.80;99.90;;;;;;4929147;28;20366;-83
2023/09/16 02:15:30;;;;;;;;;;;11.80;99.90;;;;;;4930055;28;19930;-82
2023/09/16 02:17:55;;;;;;;;;;;11.80;99.90;;;;;;4932538;28;19926;-84
2023/09/16 02:20:21;;;;;;;;;;;11.70;99.90;;;;;;4935750;28;19954;-82
2023/09/16 02:22:46;;;;;;;;;;;11.80;99.90;;;;;;4937992;28;19927;-83
2023/09/16 02:25:12;;;;;;;;;;;11.80;99.90;;;;;;4930635;29;20017;-83
2023/09/16 02:27:38;;;;;;;;;;;11.80;99.90;;;;;;4932936;29;19931;-84
2023/09/16 02:30:05;;;;;;;;;;;11.80;99.90;;;;;;4932803;29;19935;-83
2023/09/16 02:32:30;;;;;;;;;;;11.80;99.90;;;;;;4930201;28;19927;-83
2023/09/16 02:34:56;;;;;;;;;;;11.80;99.90;;;;;;4931086;29;19950;-83
2023/09/16 02:37:21;;;;;;;;;;;11.80;99.90;;;;;;4932402;28;20017;-84
2023/09/16 02:39:47;;;;;;;;;;;11.70;99.90;;;;;;4932016;28;19927;-83
2023/09/16 02:42:12;;;;;;;;;;;11.70;99.90;;;;;;4931676;29;20480;-82
2023/09/16 02:44:38;;;;;;;;;;;11.70;99.90;;;;;;4922536;28;19934;-82
2023/09/16 02:47:04;;;;;;;;;;;11.70;99.90;;;;;;4920581;29;19935;-82
2023/09/16 02:49:31;;;;;;;;;;;11.70;99.90;;;;;;4931835;29;20358;-83
2023/09/16 02:51:56;;;;;;;;;;;11.80;99.90;;;;;;4932597;29;19927;-82
2023/09/16 02:54:22;;;;;;;;;;;11.70;99.90;;;;;;4932338;29;19930;-83
2023/09/16 02:56:47;;;;;;;;;;;11.80;99.90;;;;;;4931733;28;19978;-83
2023/09/16 02:59:13;;;;;;;;;;;11.80;99.90;;;;;;4931266;29;19934;-82
2023/09/16 03:01:39;;;;;;;;;;;11.80;99.90;;;;;;4930749;29;20013;-83
2023/09/16 03:04:04;;;;;;;;;;;11.70;99.90;;;;;;4931642;28;19931;-83
2023/09/16 03:06:30;;;;;;;;;;;11.80;99.90;;;;;;4934891;29;20393;-82
2023/09/16 03:08:55;;;;;;;;;;;11.80;99.90;;;;;;4938867;29;19927;-83
2023/09/16 03:11:21;;;;;;;;;;;11.70;99.90;;;;;;4938604;29;19965;-83
2023/09/16 03:13:48;;;;;;;;;;;11.70;99.90;;;;;;4927872;28;19933;-82
2023/09/16 03:16:21;;;;;;;;;;;11.70;99.90;;;;;;4938433;29;20362;-82
2023/09/16 03:18:47;;;;;;;;;;;11.60;99.90;;;;;;4938662;29;20013;-83
2023/09/16 03:21:14;;;;;;;;;;;11.60;99.90;;;;;;4937327;29;19938;-82
2023/09/16 03:23:40;;;;;;;;;;;11.60;99.90;;;;;;4939170;29;19973;-82
2023/09/16 03:26:06;;;;;;;;;;;11.50;99.90;;;;;;4938594;29;19927;-82
2023/09/16 03:28:32;;;;;;;;;;;11.50;99.90;;;;;;4937346;28;19927;-82
2023/09/16 03:30:57;;;;;;;;;;;11.40;99.90;;;;;;4921852;29;19989;-83
2023/09/16 03:33:23;;;;;;;;;;;11.40;99.90;;;;;;4937540;29;20013;-83
2023/09/16 03:35:48;;;;;;;;;;;11.40;99.90;;;;;;4937504;29;19934;-84
2023/09/16 03:38:16;;;;;;;;;;;11.40;99.90;;;;;;4938392;29;19927;-82
2023/09/16 03:40:42;;;;;;;;;;;11.40;99.90;;;;;;4938162;29;19927;-82
2023/09/16 03:43:07;;;;;;;;;;;11.40;99.90;;;;;;4937205;28;19972;-83
2023/09/16 03:45:33;;;;;;;;;;;11.40;99.90;;;;;;4945775;28;19938;-83
2023/09/16 03:47:58;;;;;;;;;;;11.40;99.90;;;;;;4935972;29;19926;-83
2023/09/16 03:50:24;;;;;;;;;;;11.30;99.90;;;;;;4937330;29;19930;-82
2023/09/16 03:52:50;;;;;;;;;;;11.30;99.90;;;;;;4937386;29;19934;-83
2023/09/16 03:55:15;;;;;;;;;;;11.30;99.90;;;;;;4937192;29;20400;-82
2023/09/16 03:57:41;;;;;;;;;;;11.30;99.90;;;;;;4936908;29;19927;-86
2023/09/16 04:00:07;;;;;;;;;;;11.20;99.90;;;;;;4936089;28;19927;-82
2023/09/16 04:02:33;;;;;;;;;;;11.30;99.90;;;;;;4936412;28;19931;-83
2023/09/16 04:04:58;;;;;;;;;;;11.30;99.90;;;;;;4937310;28;19927;-82
2023/09/16 04:07:24;;;;;;;;;;;11.30;99.90;;;;;;4937559;28;19927;-82
2023/09/16 04:09:49;;;;;;;;;;;11.40;99.90;;;;;;4934476;29;20400;-84
2023/09/16 04:12:15;;;;;;;;;;;11.40;99.90;;;;;;4937117;29;20022;-84
2023/09/16 04:14:41;;;;;;;;;;;11.40;99.90;;;;;;4936814;29;19934;-82
2023/09/16 04:17:06;;;;;;;;;;;11.40;99.90;;;;;;4936486;29;19973;-82
2023/09/16 04:19:32;;;;;;;;;;;11.30;99.90;;;;;;4933956;29;19974;-82
2023/09/16 04:21:57;;;;;;;;;;;11.30;99.90;;;;;;4935706;28;20365;-82
2023/09/16 04:24:23;;;;;;;;;;;11.20;99.90;;;;;;4940728;28;19927;-84
2023/09/16 04:26:48;;;;;;;;;;;11.20;99.90;;;;;;4917332;29;20278;-83
2023/09/16 04:29:14;;;;;;;;;;;11.10;99.90;;;;;;4932723;29;19927;-82
2023/09/16 04:31:40;;;;;;;;;;;11.00;99.90;;;;;;4932985;28;19926;-83
2023/09/16 04:34:05;;;;;;;;;;;11.00;99.90;;;;;;4929401;29;19927;-82
2023/09/16 04:36:31;;;;;;;;;;;11.00;99.90;;;;;;4932849;28;19926;-82
2023/09/16 04:38:57;;;;;;;;;;;11.00;99.90;;;;;;4932520;29;20385;-83
2023/09/16 04:41:23;;;;;;;;;;;11.00;99.90;;;;;;4933028;28;19942;-83
2023/09/16 04:43:49;;;;;;;;;;;10.90;99.90;;;;;;4933660;29;19934;-84
2023/09/16 04:46:16;;;;;;;;;;;10.90;99.90;;;;;;4933418;29;20320;-82
2023/09/16 04:48:42;;;;;;;;;;;11.00;99.90;;;;;;4932280;28;19927;-82
2023/09/16 04:51:08;;;;;;;;;;;11.00;99.90;;;;;;4932513;29;20048;-83
2023/09/16 04:53:33;;;;;;;;;;;11.10;99.90;;;;;;4933540;29;20036;-82
2023/09/16 04:56:05;;;;;;;;;;;11.10;99.90;;;;;;4931186;29;19926;-84
2023/09/16 04:58:31;;;;;;;;;;;11.10;99.90;;;;;;4933260;28;19926;-84
2023/09/16 05:00:58;;;;;;;;;;;11.20;99.90;;;;;;4917282;29;19933;-84
2023/09/16 05:03:24;;;;;;;;;;;11.20;99.90;;;;;;4933731;29;20426;-83
2023/09/16 05:05:51;;;;;;;;;;;11.20;99.90;;;;;;4932793;29;19927;-82
2023/09/16 05:08:16;;;;;;;;;;;11.20;99.90;;;;;;4933531;29;19973;-82
2023/09/16 05:10:42;;;;;;;;;;;11.20;99.90;;;;;;4930950;28;19930;-83
2023/09/16 05:13:08;;;;;;;;;;;11.20;99.90;;;;;;4934240;29;19931;-84
2023/09/16 05:15:33;;;;;;;;;;;11.10;99.90;;;;;;4933157;29;20386;-83
2023/09/16 05:17:59;;;;;;;;;;;11.10;99.90;;;;;;4932280;29;19933;-85
2023/09/16 05:20:24;;;;;;;;;;;11.20;99.90;;;;;;4936160;28;19927;-82
2023/09/16 05:22:50;;;;;;;;;;;11.10;99.90;;;;;;4941718;29;20009;-82
2023/09/16 05:25:16;;;;;;;;;;;11.10;99.90;;;;;;4934976;28;20399;-83
2023/09/16 05:27:41;;;;;;;;;;;11.10;99.90;;;;;;4933599;29;19931;-83
2023/09/16 05:30:07;;;;;;;;;;;11.10;99.90;;;;;;4933318;29;19930;-84
2023/09/16 05:32:33;;;;;;;;;;;11.20;99.90;;;;;;4933119;29;19938;-83
2023/09/16 05:34:59;;;;;;;;;;;11.30;99.90;;;;;;4933952;29;20037;-83
2023/09/16 05:37:24;;;;;;;;;;;11.20;99.90;;;;;;4933812;29;19934;-84
2023/09/16 05:39:50;;;;;;;;;;;11.30;99.90;;;;;;4932653;28;19931;-83
2023/09/16 05:42:15;;;;;;;;;;;11.30;99.90;;;;;;4932496;29;19930;-82
2023/09/16 05:44:41;;;;;;;;;;;11.30;99.90;;;;;;4939708;28;19966;-82
2023/09/16 05:47:06;;;;;;;;;;;11.30;99.90;;;;;;4933741;29;20048;-83
2023/09/16 05:49:32;;;;;;;;;;;11.40;99.90;;;;;;4933821;28;19930;-82
2023/09/16 05:51:58;;;;;;;;;;;11.40;99.90;;;;;;4916818;29;19935;-84
2023/09/16 05:54:25;;;;;;;;;;;11.50;99.90;;;;;;4915191;29;19934;-83
2023/09/16 05:56:51;;;;;;;;;;;11.50;99.90;;;;;;4933010;29;20013;-82
2023/09/16 05:59:16;;;;;;;;;;;11.50;99.90;;;;;;4933563;28;20017;-82
2023/09/16 06:01:42;;;;;;;;;;;11.60;99.90;;;;;;4905404;29;19935;-82
2023/09/16 06:04:10;;;;;;;;;;;11.60;99.90;;;;;;4931605;29;19927;-82
2023/09/16 06:06:36;;;;;;;;;;;11.60;99.90;;;;;;4931783;29;19926;-82
2023/09/16 06:09:05;;;;;;;;;;;11.70;99.90;;;;;;4949003;28;19938;-81
2023/09/16 06:11:30;;;;;;;;;;;11.80;99.90;;;;;;4931450;28;19933;-85
2023/09/16 06:13:56;;;;;;;;;;;11.90;99.90;;;;;;4932764;29;19927;-81
2023/09/16 06:16:21;;;;;;;;;;;12.00;99.90;;;;;;4932594;29;19962;-82
2023/09/16 06:18:47;;;;;;;;;;;12.00;99.90;;;;;;4934048;29;19927;-85
2023/09/16 06:21:15;;;;;;;;;;;12.20;99.90;;;;;;4916523;29;19930;-83
2023/09/16 06:23:41;;;;;;;;;;;12.20;99.90;;;;;;4940919;28;19933;-83
2023/09/16 06:26:06;;;;;;;;;;;12.30;99.90;;;;;;4943633;29;19930;-83
2023/09/16 06:28:33;;;;;;;;;;;12.40;99.90;;;;;;4934868;28;19935;-83
2023/09/16 06:30:58;;;;;;;;;;;12.50;99.90;;;;;;4932596;29;19927;-83
2023/09/16 06:33:24;;;;;;;;;;;12.70;99.90;;;;;;4931499;28;20370;-85
2023/09/16 06:35:50;;;;;;;;;;;12.70;99.90;;;;;;4933121;29;19972;-83
2023/09/16 06:38:15;;;;;;;;;;;12.80;99.90;;;;;;4953319;28;19927;-82
2023/09/16 06:40:41;;;;;;;;;;;12.80;99.90;;;;;;4918422;29;19976;-85
2023/09/16 06:43:07;;;;;;;;;;;12.90;99.90;;;;;;4932619;29;19927;-83
2023/09/16 06:45:32;;;;;;;;;;;13.00;99.90;;;;;;4932524;29;20305;-84
2023/09/16 06:47:58;;;;;;;;;;;13.10;99.90;;;;;;4932250;28;19977;-83
2023/09/16 06:50:23;;;;;;;;;;;13.20;99.90;;;;;;4917431;28;19931;-83
2023/09/16 06:52:49;;;;;;;;;;;13.20;99.90;;;;;;4932465;29;19934;-82
2023/09/16 06:55:15;;;;;;;;;;;13.30;99.90;;;;;;4914785;29;19931;-82
2023/09/16 06:57:40;;;;;;;;;;;13.40;99.90;;;;;;4932021;28;20370;-83
2023/09/16 07:00:06;;;;;;;;;;;13.50;99.90;;;;;;4928580;28;19935;-83
2023/09/16 07:02:32;;;;;;;;;;;13.70;99.90;;;;;;4930600;29;20370;-86
2023/09/16 07:04:57;;;;;;;;;;;13.80;99.90;;;;;;4932503;28;20362;-84
2023/09/16 07:07:23;;;;;;;;;;;14.00;99.90;;;;;;4932399;29;19930;-83
2023/09/16 07:09:52;;;;;;;;;;;14.20;99.90;;;;;;4932542;29;19927;-82
2023/09/16 07:12:17;;;;;;;;;;;14.50;99.90;;;;;;4930775;28;19930;-87
2023/09/16 07:14:43;;;;;;;;;;;14.80;99.90;;;;;;4932584;29;19935;-82
2023/09/16 07:17:09;;;;;;;;;;;15.40;99.90;;;;;;4932259;29;19931;-82
2023/09/16 07:19:34;;;;;;;;;;;16.10;99.90;;;;;;4931285;29;19937;-82
2023/09/16 07:22:00;;;;;;;;;;;16.80;99.90;;;;;;4925394;29;20017;-81
2023/09/16 07:24:26;;;;;;;;;;;17.40;99.90;;;;;;4932210;29;20052;-81
2023/09/16 07:26:51;;;;;;;;;;;18.00;99.90;;;;;;4932085;29;19978;-81
2023/09/16 07:29:18;;;;;;;;;;;18.60;99.90;;;;;;4932317;28;19977;-82
2023/09/16 07:31:44;;;;;;;;;;;19.00;99.90;;;;;;4930949;29;19933;-80
2023/09/16 07:34:09;;;;;;;;;;;19.50;99.90;;;;;;4923675;29;20018;-80
2023/09/16 07:36:35;;;;;;;;;;;19.90;99.90;;;;;;4927524;29;19981;-82
2023/09/16 07:39:00;;;;;;;;;;;20.30;99.90;;;;;;4931574;29;20271;-83
2023/09/16 07:41:26;;;;;;;;;;;20.60;99.90;;;;;;4932272;29;19927;-80
2023/09/16 07:43:52;;;;;;;;;;;20.80;99.90;;;;;;4945226;28;19927;-80
2023/09/16 07:46:17;;;;;;;;;;;21.10;99.90;;;;;;4931007;29;19927;-81
2023/09/16 07:48:43;;;;;;;;;;;21.40;99.90;;;;;;4942834;28;19976;-81
2023/09/16 07:51:08;;;;;;;;;;;21.50;99.90;;;;;;4938178;29;19934;-81
2023/09/16 07:53:34;;;;;;;;;;;21.20;99.90;;;;;;4940731;29;19927;-83
2023/09/16 07:56:00;;;;;;;;;;;20.60;99.90;;;;;;4942266;29;20402;-83
2023/09/16 07:58:25;;;;;;;;;;;20.20;99.90;;;;;;4924630;28;19926;-81
2023/09/16 08:00:53;;;;;;;;;;;19.80;99.90;;;;;;4942944;29;20316;-82
2023/09/16 08:03:19;;;;;;;;;;;19.50;99.90;;;;;;4943032;28;19934;-84
2023/09/16 08:05:45;;;;;;;;;;;19.80;99.90;;;;;;4943497;29;19980;-83
2023/09/16 08:08:12;;;;;;;;;;;20.30;99.90;;;;;;4944782;29;19933;-83
2023/09/16 08:10:37;;;;;;;;;;;20.60;99.90;;;;;;4943617;29;20018;-83
2023/09/16 08:13:03;;;;;;;;;;;20.80;99.90;;;;;;4945989;28;19927;-83
2023/09/16 08:15:35;;;;;;;;;;;20.90;99.90;;;;;;4945915;29;19982;-83
2023/09/16 08:18:01;;;;;;;;;;;21.20;99.90;;;;;;4957814;28;19927;-83
2023/09/16 08:20:26;;;;;;;;;;;21.50;99.90;;;;;;4956162;28;20341;-82
2023/09/16 08:22:52;;;;;;;;;;;21.80;99.90;;;;;;4945990;29;20305;-82
2023/09/16 08:25:19;;;;;;;;;;;22.20;99.90;;;;;;4944467;28;19931;-82
2023/09/16 08:27:46;;;;;;;;;;;22.60;99.90;;;;;;4944536;29;19937;-82
2023/09/16 08:30:16;;;;;;;;;;;22.80;99.90;;;;;;4947068;28;19927;-84
2023/09/16 08:32:44;;;;;;;;;;;22.90;99.90;;;;;;4950174;29;19927;-84
2023/09/16 08:35:25;;;;;;;;;;;22.90;99.90;;;;;;4946033;28;19927;-82
2023/09/16 08:37:54;;;;;;;;;;;22.90;99.90;;;;;;4933278;29;19927;-83
2023/09/16 08:40:21;;;;;;;;;;;22.60;99.90;;;;;;4941208;29;19927;-83
2023/09/16 08:42:58;;;;;;;;;;;22.60;99.90;;;;;;4944946;29;19927;-82
2023/09/16 08:45:25;;;;;;;;;;;22.50;99.90;;;;;;4948233;28;19941;-84
2023/09/16 08:48:01;;;;;;;;;;;22.40;99.90;;;;;;4943968;29;19934;-84
2023/09/16 08:50:29;;;;;;;;;;;22.50;99.90;;;;;;4944459;29;19926;-83
2023/09/16 08:52:59;;;;;;;;;;;22.60;99.90;;;;;;4931858;29;19926;-82
2023/09/16 08:55:24;;;;;;;;;;;22.40;99.90;;;;;;4938135;29;19977;-84
2023/09/16 08:58:09;;;;;;;;;;;22.20;99.90;;;;;;4930342;29;19973;-84
2023/09/16 09:00:37;;;;;;;;;;;22.20;99.90;;;;;;4934759;29;19936;-83
2023/09/16 09:03:03;;;;;;;;;;;22.50;99.90;;;;;;4940280;29;20339;-83
2023/09/16 09:05:28;;;;;;;;;;;22.80;99.90;;;;;;4935520;29;19927;-87
2023/09/16 09:07:54;;;;;;;;;;;23.10;99.90;;;;;;4940642;28;19937;-81
2023/09/16 09:10:20;;;;;;;;;;;23.40;99.90;;;;;;4939289;28;20036;-82
2023/09/16 09:12:49;;;;;;;;;;;23.60;99.90;;;;;;4938348;29;19927;-83
2023/09/16 09:15:15;;;;;;;;;;;23.90;99.90;;;;;;4949359;29;19983;-81
2023/09/16 09:17:42;;;;;;;;;;;24.20;99.90;;;;;;4956608;28;20018;-81
2023/09/16 09:20:11;;;;;;;;;;;24.50;99.90;;;;;;4941692;28;19937;-82
2023/09/16 09:22:40;;;;;;;;;;;24.70;99.90;;;;;;4941288;29;19926;-82
2023/09/16 09:25:06;;;;;;;;;;;24.90;99.90;;;;;;4942767;29;19969;-81
2023/09/16 09:27:32;;;;;;;;;;;24.80;99.90;;;;;;4940207;28;19927;-83
2023/09/16 09:29:57;;;;;;;;;;;24.50;99.90;;;;;;4954477;28;19934;-82
2023/09/16 09:32:33;;;;;;;;;;;24.30;99.90;;;;;;4923478;28;19977;-84
2023/09/16 09:35:05;;;;;;;;;;;23.90;99.90;;;;;;4941151;29;19937;-86
2023/09/16 09:37:31;;;;;;;;;;;23.40;99.90;;;;;;4922982;29;19930;-85
2023/09/16 09:40:07;;;;;;;;;;;23.00;99.90;;;;;;4944438;29;19930;-84
2023/09/16 09:42:37;;;;;;;;;;;22.70;99.90;;;;;;4944338;28;19935;-83
2023/09/16 09:45:03;;;;;;;;;;;22.40;99.90;;;;;;4939175;28;19942;-82
2023/09/16 09:47:29;;;;;;;;;;;22.20;99.90;;;;;;4939841;29;19935;-83
2023/09/16 09:49:57;;;;;;;;;;;22.20;99.90;;;;;;4934877;29;19934;-88
2023/09/16 09:52:22;;;;;;;;;;;22.40;99.90;;;;;;4935616;28;20306;-82
2023/09/16 09:54:55;;;;;;;;;;;22.90;99.90;;;;;;4959761;28;19927;-83
2023/09/16 09:57:21;;;;;;;;;;;23.30;99.90;;;;;;4940575;28;19926;-83
2023/09/16 09:59:54;;;;;;;;;;;23.30;99.90;;;;;;4940765;28;20456;-82
2023/09/16 10:02:22;;;;;;;;;;;23.30;99.90;;;;;;4953675;28;20071;-82
2023/09/16 10:04:48;;;;;;;;;;;23.50;99.90;;;;;;4936161;29;19927;-83
2023/09/16 10:07:13;;;;;;;;;;;23.70;99.90;;;;;;4955903;28;19923;-88
2023/09/16 10:09:42;;;;;;;;;;;23.80;99.90;;;;;;4923070;29;19931;-83
2023/09/16 10:12:14;;;;;;;;;;;24.00;99.90;;;;;;4940220;28;19988;-82
2023/09/16 10:14:39;;;;;;;;;;;24.20;99.90;;;;;;4945927;29;20000;-83
2023/09/16 10:17:05;;;;;;;;;;;24.20;99.90;;;;;;4937807;29;19927;-84
2023/09/16 10:19:43;;;;;;;;;;;24.10;99.90;;;;;;4933232;29;20420;-86
2023/09/16 10:22:11;;;;;;;;;;;24.10;99.90;;;;;;4939327;29;19989;-84
2023/09/16 10:24:43;;;;;;;;;;;24.00;99.90;;;;;;4938921;28;19938;-84
2023/09/16 10:27:13;;;;;;;;;;;24.00;99.90;;;;;;4974688;28;20281;-84
2023/09/16 10:29:40;;;;;;;;;;;23.90;99.90;;;;;;4938867;29;19927;-84
2023/09/16 10:32:13;;;;;;;;;;;23.80;99.90;;;;;;4938603;28;19942;-84
2023/09/16 10:34:38;;;;;;;;;;;23.80;99.90;;;;;;4939967;28;19926;-88
2023/09/16 10:37:12;;;;;;;;;;;23.80;99.90;;;;;;4939443;29;19978;-89
2023/09/16 10:39:38;;;;;;;;;;;23.80;99.90;;;;;;4916947;29;20340;-83
2023/09/16 10:42:05;;;;;;;;;;;24.00;99.90;;;;;;4935368;29;19934;-86
2023/09/16 10:44:32;;;;;;;;;;;24.10;99.90;;;;;;4944470;28;19935;-83
2023/09/16 10:47:04;;;;;;;;;;;24.10;99.90;;;;;;4935088;28;20076;-83
2023/09/16 10:49:30;;;;;;;;;;;24.20;99.90;;;;;;4952141;29;19934;-84
2023/09/16 10:52:00;;;;;;;;;;;24.20;99.90;;;;;;4934041;29;19927;-83
2023/09/16 10:54:41;;;;;;;;;;;24.40;99.90;;;;;;4971425;28;20474;-82
2023/09/16 10:57:19;;;;;;;;;;;24.40;99.90;;;;;;4946785;28;19930;-81
2023/09/16 10:59:47;;;;;;;;;;;24.50;99.90;;;;;;4939230;29;19930;-83
2023/09/16 11:02:19;;;;;;;;;;;24.50;99.90;;;;;;4937689;29;19927;-83
2023/09/16 11:04:50;;;;;;;;;;;24.60;99.90;;;;;;4925078;29;19957;-83
2023/09/16 11:07:16;;;;;;;;;;;24.70;99.90;;;;;;4929558;29;19951;-86
2023/09/16 11:09:48;;;;;;;;;;;24.90;99.90;;;;;;4942716;28;19933;-83
2023/09/16 11:12:14;;;;;;;;;;;25.10;99.90;;;;;;4938713;29;19927;-83
2023/09/16 11:14:43;;;;;;;;;;;25.20;99.90;;;;;;4935024;29;20408;-84
2023/09/16 11:17:10;;;;;;;;;;;25.30;99.90;;;;;;4936966;29;19938;-82
2023/09/16 11:19:37;;;;;;;;;;;25.30;99.90;;;;;;4937337;28;20013;-82
2023/09/16 11:22:07;;;;;;;;;;;25.30;99.90;;;;;;4938679;29;20023;-83
2023/09/16 11:24:37;;;;;;;;;;;25.30;99.90;;;;;;4938579;29;19931;-83
2023/09/16 11:27:03;;;;;;;;;;;25.30;99.90;;;;;;4939307;29;20569;-83
2023/09/16 11:29:31;;;;;;;;;;;25.30;99.90;;;;;;4939802;29;19934;-84
2023/09/16 11:31:57;;;;;;;;;;;25.40;99.90;;;;;;4937243;29;19949;-83
2023/09/16 11:34:29;;;;;;;;;;;25.40;99.90;;;;;;4939191;28;19949;-86
2023/09/16 11:36:55;;;;;;;;;;;25.50;99.90;;;;;;4939927;29;19927;-84
2023/09/16 11:39:22;;;;;;;;;;;25.50;99.90;;;;;;4942985;28;19973;-84
2023/09/16 11:41:48;;;;;;;;;;;25.60;99.90;;;;;;4938939;29;19977;-84
2023/09/16 11:44:14;;;;;;;;;;;25.50;99.90;;;;;;4945264;28;19929;-83
2023/09/16 11:46:40;;;;;;;;;;;25.50;99.90;;;;;;4945890;28;19927;-87
2023/09/16 11:49:07;;;;;;;;;;;25.40;99.90;;;;;;4928447;29;19927;-84
2023/09/16 11:51:36;;;;;;;;;;;25.40;99.90;;;;;;4943660;28;20010;-85
2023/09/16 11:54:02;;;;;;;;;;;25.40;99.90;;;;;;4940174;28;20016;-85
2023/09/16 11:56:29;;;;;;;;;;;25.60;99.90;;;;;;4941097;29;19937;-84
2023/09/16 11:58:57;;;;;;;;;;;25.70;99.90;;;;;;4957991;28;19949;-85
2023/09/16 12:01:31;;;;;;;;;;;25.70;99.90;;;;;;4940779;29;20610;-84
2023/09/16 12:03:57;;;;;;;;;;;25.80;99.90;;;;;;4960643;28;19926;-84
2023/09/16 12:06:25;;;;;;;;;;;25.90;99.90;;;;;;4942076;29;19981;-85
2023/09/16 12:08:55;;;;;;;;;;;26.00;99.90;;;;;;4941120;29;19939;-85
2023/09/16 12:11:21;;;;;;;;;;;26.10;99.90;;;;;;4934829;29;19926;-85
2023/09/16 12:13:46;;;;;;;;;;;26.20;99.90;;;;;;4940473;29;19933;-84
2023/09/16 12:16:14;;;;;;;;;;;26.10;99.90;;;;;;4949657;29;19931;-84
2023/09/16 12:18:45;;;;;;;;;;;26.10;99.90;;;;;;4941833;29;19934;-85
2023/09/16 12:21:12;;;;;;;;;;;25.80;99.80;;;;;;4941618;28;19926;-84
2023/09/16 12:23:41;;;;;;;;;;;25.60;99.90;;;;;;4940296;29;20015;-87
2023/09/16 12:26:07;;;;;;;;;;;25.50;99.90;;;;;;4939174;29;19934;-85
2023/09/16 12:28:33;;;;;;;;;;;25.40;99.90;;;;;;4940905;29;19973;-85
2023/09/16 12:31:00;;;;;;;;;;;25.50;99.90;;;;;;4939425;28;20329;-85
2023/09/16 12:33:46;;;;;;;;;;;25.50;99.90;;;;;;4938918;29;19962;-85
2023/09/16 12:36:15;;;;;;;;;;;25.60;99.90;;;;;;4945565;29;19931;-84
2023/09/16 12:38:46;;;;;;;;;;;25.70;99.90;;;;;;4943689;28;19931;-85
2023/09/16 12:41:15;;;;;;;;;;;25.80;99.90;;;;;;4939444;29;19927;-85
2023/09/16 12:43:42;;;;;;;;;;;25.80;99.90;;;;;;4939821;29;20014;-85
2023/09/16 12:46:11;;;;;;;;;;;25.90;99.90;;;;;;4936402;28;19930;-84
2023/09/16 12:48:38;;;;;;;;;;;25.90;99.90;;;;;;4944554;28;19939;-85
2023/09/16 12:51:05;;;;;;;;;;;25.90;99.90;;;;;;4936502;29;19973;-84
2023/09/16 12:53:30;;;;;;;;;;;25.90;99.90;;;;;;4939292;29;19927;-84
2023/09/16 12:56:06;;;;;;;;;;;25.90;99.90;;;;;;4938841;29;19974;-85
2023/09/16 12:58:33;;;;;;;;;;;25.80;99.60;;;;;;4941307;29;19949;-86
2023/09/16 13:01:00;;;;;;;;;;;25.80;99.90;;;;;;4937886;28;20397;-85
2023/09/16 13:03:36;;;;;;;;;;;25.80;99.90;;;;;;4939961;28;19997;-85
2023/09/16 13:06:03;;;;;;;;;;;25.70;99.90;;;;;;4936366;29;20428;-85
2023/09/16 13:08:28;;;;;;;;;;;25.50;99.00;;;;;;4940861;29;19930;-84
2023/09/16 13:10:57;;;;;;;;;;;25.30;99.60;;;;;;4940592;29;20674;-85
2023/09/16 13:13:23;;;;;;;;;;;25.10;99.90;;;;;;4940315;28;20014;-86
2023/09/16 13:15:49;;;;;;;;;;;24.90;99.90;;;;;;4939170;29;20021;-84
2023/09/16 13:18:20;;;;;;;;;;;24.90;99.90;;;;;;4939072;28;19949;-85
2023/09/16 13:20:52;;;;;;;;;;;24.80;99.90;;;;;;4937611;29;19927;-85
2023/09/16 13:23:24;;;;;;;;;;;24.70;99.90;;;;;;4939146;29;19934;-85
2023/09/16 13:26:07;;;;;;;;;;;24.60;99.40;;;;;;4938904;28;19927;-85
2023/09/16 13:28:33;;;;;;;;;;;24.40;99.90;;;;;;4932795;29;19935;-85
2023/09/16 13:30:58;;;;;;;;;;;24.40;99.90;;;;;;4931478;29;19930;-85
2023/09/16 13:33:42;;;;;;;;;;;24.40;99.90;;;;;;4932372;29;19927;-85
2023/09/16 13:36:08;;;;;;;;;;;24.40;99.90;;;;;;4937771;29;19927;-84
2023/09/16 13:38:34;;;;;;;;;;;24.60;99.90;;;;;;4939728;29;19942;-85
2023/09/16 13:40:59;;;;;;;;;;;24.70;99.90;;;;;;4937776;29;19927;-84
2023/09/16 13:43:25;;;;;;;;;;;24.90;99.90;;;;;;4936283;28;19927;-85
2023/09/16 13:45:51;;;;;;;;;;;25.00;99.90;;;;;;4940276;28;19927;-85
2023/09/16 13:48:18;;;;;;;;;;;25.00;99.90;;;;;;4938805;29;20073;-84
2023/09/16 13:50:44;;;;;;;;;;;25.20;99.90;;;;;;4928551;29;20313;-86
2023/09/16 13:53:15;;;;;;;;;;;25.30;99.90;;;;;;4940533;28;19978;-85
2023/09/16 13:55:42;;;;;;;;;;;25.20;99.90;;;;;;4939575;28;19966;-85
2023/09/16 13:58:08;;;;;;;;;;;25.10;99.90;;;;;;4935550;29;19926;-85
2023/09/16 14:00:34;;;;;;;;;;;25.10;99.90;;;;;;4941628;28;19992;-84
2023/09/16 14:03:00;;;;;;;;;;;25.10;99.90;;;;;;4936530;29;19927;-86
2023/09/16 14:05:29;;;;;;;;;;;25.20;99.90;;;;;;4909770;28;19933;-86
2023/09/16 14:07:55;;;;;;;;;;;25.20;99.50;;;;;;4939367;28;19937;-85
2023/09/16 14:10:26;;;;;;;;;;;25.20;99.90;;;;;;4940040;28;19926;-85
2023/09/16 14:12:52;;;;;;;;;;;25.30;99.90;;;;;;4941644;29;20398;-85
2023/09/16 14:15:18;;;;;;;;;;;25.30;99.90;;;;;;4940236;28;19933;-85